createdAt,value
2022-12-17T00:01:54.988Z,1.37
2022-12-17T00:05:17.468Z,1.31
2022-12-17T00:08:38.287Z,1.23
2022-12-17T00:11:59.320Z,1.21
2022-12-17T00:15:20.112Z,1.04
2022-12-17T00:18:41.905Z,1.02
2022-12-17T00:22:02.821Z,1.01
2022-12-17T00:25:24.633Z,0.98
2022-12-17T00:28:45.465Z,1.01
2022-12-17T00:32:06.537Z,1.09
2022-12-17T00:35:27.317Z,1.14
2022-12-17T00:38:48.078Z,1.19
2022-12-17T00:42:08.767Z,1.23
2022-12-17T00:45:30.733Z,1.13
2022-12-17T00:48:51.606Z,1.07
2022-12-17T00:52:13.054Z,1.03
2022-12-17T00:55:33.753Z,1.06
2022-12-17T00:58:54.574Z,0.99
2022-12-17T01:02:15.504Z,0.99
2022-12-17T01:05:36.385Z,1.01
2022-12-17T01:08:56.949Z,0.94
2022-12-17T01:12:17.664Z,0.92
2022-12-17T01:15:38.496Z,0.86
2022-12-17T01:18:59.453Z,0.85
2022-12-17T01:22:20.323Z,0.77
2022-12-17T01:25:41.431Z,0.78
2022-12-17T01:29:02.262Z,0.82
2022-12-17T01:32:24.793Z,0.91
2022-12-17T01:35:45.693Z,1.07
2022-12-17T01:39:06.706Z,1.10
2022-12-17T01:42:31.212Z,1.14
2022-12-17T01:46:01.910Z,1.26
2022-12-17T01:49:23.130Z,1.37
2022-12-17T01:52:44.084Z,1.35
2022-12-17T01:56:05.200Z,1.41
2022-12-17T01:59:27.692Z,1.48
2022-12-17T02:02:48.464Z,1.46
2022-12-17T02:06:45.011Z,1.56
2022-12-17T02:10:16.896Z,1.53
2022-12-17T02:13:42.104Z,1.61
2022-12-17T02:17:10.178Z,1.57
2022-12-17T02:20:55.640Z,1.54
2022-12-17T02:24:32.452Z,1.42
2022-12-17T02:27:54.448Z,1.26
2022-12-17T02:31:16.331Z,1.29
2022-12-17T02:34:37.533Z,1.36
2022-12-17T02:38:05.280Z,1.32
2022-12-17T02:41:31.353Z,1.22
2022-12-17T02:44:53.625Z,1.18
2022-12-17T02:48:15.402Z,1.27
2022-12-17T02:51:36.675Z,1.22
2022-12-17T02:54:58.975Z,1.32
2022-12-17T02:58:19.694Z,1.25
2022-12-17T03:01:40.714Z,1.18
2022-12-17T03:05:21.137Z,0.95
2022-12-17T03:08:44.029Z,0.78
2022-12-17T03:12:04.989Z,0.73
2022-12-17T03:15:26.476Z,0.65
2022-12-17T03:18:47.307Z,0.69
2022-12-17T03:22:08.522Z,0.74
2022-12-17T03:25:29.298Z,0.65
2022-12-17T03:28:50.153Z,0.76
2022-12-17T03:32:10.878Z,0.81
2022-12-17T03:35:32.195Z,0.92
2022-12-17T03:38:53.145Z,0.89
2022-12-17T03:42:14.486Z,0.76
2022-12-17T03:45:35.433Z,0.72
2022-12-17T03:48:56.495Z,0.55
2022-12-17T03:52:17.298Z,0.53
2022-12-17T03:55:38.049Z,0.49
2022-12-17T03:58:58.969Z,0.51
2022-12-17T04:02:20.338Z,0.57
2022-12-17T04:05:41.380Z,0.59
2022-12-17T04:09:02.262Z,0.55
2022-12-17T04:12:23.301Z,0.44
2022-12-17T04:15:43.832Z,0.38
2022-12-17T04:19:04.694Z,0.21
2022-12-17T04:22:25.618Z,0.07
2022-12-17T04:25:46.984Z,-0.05
2022-12-17T04:29:07.845Z,-0.15
2022-12-17T04:32:33.615Z,-0.25
2022-12-17T04:35:56.221Z,-0.19
2022-12-17T04:39:17.088Z,-0.14
2022-12-17T04:42:37.996Z,-0.22
2022-12-17T04:45:59.141Z,-0.16
2022-12-17T04:49:20.098Z,-0.20
2022-12-17T04:52:41.456Z,-0.33
2022-12-17T04:56:02.352Z,-0.42
2022-12-17T04:59:23.452Z,-0.45
2022-12-17T05:02:44.623Z,-0.51
2022-12-17T05:06:05.837Z,-0.53
2022-12-17T05:09:26.672Z,-0.51
2022-12-17T05:12:47.456Z,-0.55
2022-12-17T05:16:14.916Z,-0.64
2022-12-17T05:19:35.829Z,-0.75
2022-12-17T05:22:56.549Z,-0.78
2022-12-17T05:26:23.994Z,-0.84
2022-12-17T05:29:44.818Z,-0.82
2022-12-17T05:33:05.549Z,-0.81
2022-12-17T05:36:26.895Z,-0.84
2022-12-17T05:39:47.766Z,-0.80
2022-12-17T05:43:20.181Z,-0.77
2022-12-17T05:46:41.142Z,-0.75
2022-12-17T05:50:01.833Z,-0.73
2022-12-17T05:53:24.169Z,-0.70
2022-12-17T05:56:45.048Z,-0.65
2022-12-17T06:00:06.054Z,-0.62
2022-12-17T06:03:33.069Z,-0.71
2022-12-17T06:06:54.154Z,-0.74
2022-12-17T06:10:15.119Z,-0.80
2022-12-17T06:13:36.519Z,-0.82
2022-12-17T06:16:57.633Z,-0.83
2022-12-17T06:20:18.812Z,-0.82
2022-12-17T06:23:39.537Z,-0.78
2022-12-17T06:27:00.384Z,-0.75
2022-12-17T06:30:21.358Z,-0.73
2022-12-17T06:33:42.041Z,-0.73
2022-12-17T06:37:04.004Z,-0.72
2022-12-17T06:40:45.355Z,-0.75
2022-12-17T06:44:06.379Z,-0.75
2022-12-17T06:47:27.348Z,-0.70
2022-12-17T06:50:48.117Z,-0.68
2022-12-17T06:54:09.345Z,-0.62
2022-12-17T06:57:30.064Z,-0.57
2022-12-17T07:00:50.955Z,-0.71
2022-12-17T07:04:11.467Z,-0.72
2022-12-17T07:07:32.315Z,-0.69
2022-12-17T07:10:53.121Z,-0.68
2022-12-17T07:14:14.873Z,-0.72
2022-12-17T07:17:35.663Z,-0.75
2022-12-17T07:20:56.546Z,-0.83
2022-12-17T07:24:17.329Z,-0.81
2022-12-17T07:27:38.223Z,-0.78
2022-12-17T07:30:59.114Z,-0.87
2022-12-17T07:34:20.037Z,-0.87
2022-12-17T07:37:40.760Z,-0.87
2022-12-17T07:41:02.171Z,-0.74
2022-12-17T07:44:23.026Z,-0.72
2022-12-17T07:47:43.872Z,-0.60
2022-12-17T07:51:11.394Z,-0.60
2022-12-17T07:54:32.207Z,-0.47
2022-12-17T07:57:53.004Z,-0.52
2022-12-17T08:01:14.993Z,-0.42
2022-12-17T08:04:36.096Z,-0.37
2022-12-17T08:07:57.055Z,-0.23
2022-12-17T08:11:17.861Z,-0.16
2022-12-17T08:14:38.757Z,-0.16
2022-12-17T08:18:00.013Z,-0.17
2022-12-17T08:21:20.909Z,-0.10
2022-12-17T08:24:41.813Z,0.19
2022-12-17T08:28:04.671Z,0.11
2022-12-17T08:31:31.512Z,-0.03
2022-12-17T08:34:52.291Z,0.09
2022-12-17T08:38:22.985Z,0.11
2022-12-17T08:41:45.247Z,0.00
2022-12-17T08:45:07.413Z,0.05
2022-12-17T08:48:30.541Z,0.10
2022-12-17T08:51:51.554Z,0.04
2022-12-17T08:55:12.376Z,-0.05
2022-12-17T08:58:33.317Z,-0.07
2022-12-17T09:01:54.210Z,0.19
2022-12-17T09:05:15.149Z,0.02
2022-12-17T09:08:41.312Z,-0.09
2022-12-17T09:12:02.560Z,-0.26
2022-12-17T09:15:28.377Z,-0.16
2022-12-17T09:18:49.229Z,-0.18
2022-12-17T09:22:10.042Z,-0.10
2022-12-17T09:25:31.236Z,0.15
2022-12-17T09:28:52.101Z,0.11
2022-12-17T09:32:13.361Z,0.09
2022-12-17T09:35:34.310Z,0.10
2022-12-17T09:38:55.368Z,0.35
2022-12-17T09:42:53.441Z,0.30
2022-12-17T09:46:40.431Z,0.38
2022-12-17T09:50:01.725Z,0.43
2022-12-17T09:53:47.704Z,0.52
2022-12-17T09:57:09.249Z,0.48
2022-12-17T10:00:44.744Z,0.24
2022-12-17T10:04:05.897Z,0.23
2022-12-17T10:07:37.420Z,0.21
2022-12-17T10:11:04.634Z,0.14
2022-12-17T10:14:35.076Z,0.17
2022-12-17T10:17:55.835Z,0.35
2022-12-17T10:21:20.111Z,0.39
2022-12-17T10:24:41.169Z,0.59
2022-12-17T10:28:03.549Z,0.70
2022-12-17T10:31:36.840Z,0.66
2022-12-17T10:35:04.841Z,0.68
2022-12-17T10:38:40.438Z,0.86
2022-12-17T10:42:01.284Z,0.96
2022-12-17T10:45:41.018Z,1.22
2022-12-17T10:49:04.657Z,1.22
2022-12-17T10:52:46.310Z,1.46
2022-12-17T10:56:12.493Z,1.44
2022-12-17T10:59:49.344Z,1.68
2022-12-17T11:03:10.577Z,1.64
2022-12-17T11:06:42.051Z,1.59
2022-12-17T11:10:10.279Z,2.02
2022-12-17T11:13:41.046Z,2.11
2022-12-17T11:17:18.933Z,2.09
2022-12-17T11:21:06.135Z,2.02
2022-12-17T11:24:35.559Z,2.28
2022-12-17T11:28:02.963Z,2.07
2022-12-17T11:31:37.361Z,1.83
2022-12-17T11:35:13.738Z,1.62
2022-12-17T11:38:40.858Z,1.97
2022-12-17T11:42:16.656Z,1.66
2022-12-17T11:45:54.225Z,1.39
2022-12-17T11:49:28.914Z,1.40
2022-12-17T11:53:07.104Z,1.46
2022-12-17T11:56:29.712Z,1.12
2022-12-17T11:59:58.154Z,0.99
2022-12-17T12:03:57.851Z,1.15
2022-12-17T12:07:44.800Z,2.75
2022-12-17T12:11:41.528Z,3.32
2022-12-17T12:15:30.700Z,3.19
2022-12-17T12:19:01.051Z,2.46
2022-12-17T12:22:34.193Z,1.94
2022-12-17T12:26:18.719Z,1.33
2022-12-17T12:29:55.913Z,1.15
2022-12-17T12:33:37.612Z,0.92
2022-12-17T12:37:00.940Z,0.80
2022-12-17T12:40:47.714Z,0.46
2022-12-17T12:44:16.141Z,0.36
2022-12-17T12:47:56.602Z,0.52
2022-12-17T12:51:34.948Z,0.46
2022-12-17T12:55:05.151Z,0.46
2022-12-17T12:58:50.503Z,0.52
2022-12-17T13:02:11.840Z,0.49
2022-12-17T13:05:34.775Z,0.40
2022-12-17T13:08:38.294Z,0.50
2022-12-17T13:11:48.779Z,0.33
2022-12-17T13:14:56.727Z,0.43
2022-12-17T13:18:25.628Z,0.29
2022-12-17T13:21:29.543Z,0.36
2022-12-17T13:24:31.991Z,0.50
2022-12-17T13:27:34.144Z,0.41
2022-12-17T13:30:38.137Z,0.36
2022-12-17T13:33:52.426Z,0.62
2022-12-17T13:37:05.913Z,1.09
2022-12-17T13:40:21.520Z,1.15
2022-12-17T13:43:30.239Z,0.90
2022-12-17T13:46:46.885Z,0.37
2022-12-17T13:50:24.613Z,0.47
2022-12-17T13:53:15.475Z,0.28
2022-12-17T13:56:23.436Z,0.22
2022-12-17T13:59:25.643Z,-0.03
2022-12-17T14:02:31.451Z,-0.12
2022-12-17T14:05:42.362Z,0.06
2022-12-17T14:08:46.677Z,0.11
2022-12-17T14:12:08.964Z,0.01
2022-12-17T14:15:24.310Z,0.07
2022-12-17T14:18:26.852Z,0.00
2022-12-17T14:21:29.882Z,-0.08
2022-12-17T14:24:32.903Z,-0.13
2022-12-17T14:27:37.045Z,-0.23
2022-12-17T14:31:17.217Z,-0.21
2022-12-17T14:34:11.326Z,-0.43
2022-12-17T14:37:19.872Z,-0.62
2022-12-17T14:40:24.813Z,-0.64
2022-12-17T14:43:29.408Z,-0.76
2022-12-17T14:46:33.829Z,-0.83
2022-12-17T14:49:38.388Z,-0.90
2022-12-17T14:52:42.548Z,-1.01
2022-12-17T14:56:00.090Z,-0.97
2022-12-17T14:59:02.493Z,-1.02
2022-12-17T15:02:08.124Z,-1.00
2022-12-17T15:05:17.229Z,-0.98
2022-12-17T15:08:20.259Z,-1.03
2022-12-17T15:11:22.847Z,-0.94
2022-12-17T15:14:25.317Z,-0.96
2022-12-17T15:17:28.016Z,-1.02
2022-12-17T15:20:31.524Z,-1.05
2022-12-17T15:23:34.124Z,-1.06
2022-12-17T15:26:37.202Z,-1.06
2022-12-17T15:29:39.911Z,-1.16
2022-12-17T15:32:44.379Z,-1.08
2022-12-17T15:35:46.778Z,-1.18
2022-12-17T15:38:49.251Z,-1.29
2022-12-17T15:42:09.760Z,-1.29
2022-12-17T15:45:12.185Z,-1.25
2022-12-17T15:48:17.657Z,-1.16
2022-12-17T15:51:21.158Z,-1.13
2022-12-17T15:54:23.472Z,-1.19
2022-12-17T15:57:25.959Z,-1.26
2022-12-17T16:00:28.434Z,-1.20
2022-12-17T16:03:30.816Z,-1.25
2022-12-17T16:06:33.811Z,-1.41
2022-12-17T16:09:36.196Z,-1.39
2022-12-17T16:12:38.919Z,-1.47
2022-12-17T16:15:41.377Z,-1.49
2022-12-17T16:18:43.712Z,-1.44
2022-12-17T16:21:47.066Z,-1.35
2022-12-17T16:24:49.605Z,-1.54
2022-12-17T16:27:51.995Z,-1.55
2022-12-17T16:31:01.117Z,-1.47
2022-12-17T16:34:08.735Z,-1.47
2022-12-17T16:37:11.148Z,-1.46
2022-12-17T16:40:13.513Z,-1.56
2022-12-17T16:43:15.889Z,-1.52
2022-12-17T16:46:33.844Z,-1.52
2022-12-17T16:49:36.486Z,-1.51
2022-12-17T16:52:38.940Z,-1.60
2022-12-17T16:55:42.650Z,-1.65
2022-12-17T16:58:45.315Z,-1.67
2022-12-17T17:01:49.748Z,-1.70
2022-12-17T17:04:52.180Z,-1.61
2022-12-17T17:07:54.338Z,-1.63
2022-12-17T17:10:56.713Z,-1.70
2022-12-17T17:13:59.090Z,-1.76
2022-12-17T17:17:01.486Z,-1.70
2022-12-17T17:20:03.893Z,-1.60
2022-12-17T17:23:06.298Z,-1.61
2022-12-17T17:26:09.709Z,-1.57
2022-12-17T17:29:12.198Z,-1.61
2022-12-17T17:32:14.382Z,-1.54
2022-12-17T17:35:17.066Z,-1.60
2022-12-17T17:38:19.302Z,-1.62
2022-12-17T17:41:23.517Z,-1.70
2022-12-17T17:44:25.624Z,-1.62
2022-12-17T17:47:30.065Z,-1.67
2022-12-17T17:50:32.157Z,-1.68
2022-12-17T17:53:35.661Z,-1.73
2022-12-17T17:56:40.405Z,-1.73
2022-12-17T17:59:42.837Z,-1.74
2022-12-17T18:02:45.085Z,-1.67
2022-12-17T18:05:47.635Z,-1.76
2022-12-17T18:08:49.953Z,-1.68
2022-12-17T18:11:52.352Z,-1.73
2022-12-17T18:18:16.918Z,-1.80
2022-12-17T18:21:20.050Z,-1.83
2022-12-17T18:24:23.157Z,-1.78
2022-12-17T18:27:25.270Z,-1.77
2022-12-17T18:30:27.763Z,-1.79
2022-12-17T18:33:29.951Z,-1.88
2022-12-17T18:36:40.334Z,-1.86
2022-12-17T18:39:42.601Z,-1.86
2022-12-17T18:43:03.420Z,-1.90
2022-12-17T18:46:05.685Z,-1.82
2022-12-17T18:49:10.883Z,-1.89
2022-12-17T18:52:16.637Z,-1.93
2022-12-17T18:55:19.832Z,-1.91
2022-12-17T18:58:21.953Z,-1.90
2022-12-17T19:01:27.116Z,-1.90
2022-12-17T19:04:29.370Z,-1.93
2022-12-17T19:07:31.807Z,-1.91
2022-12-17T19:10:35.104Z,-1.93
2022-12-17T19:13:37.732Z,-2.01
2022-12-17T19:16:40.136Z,-2.09
2022-12-17T19:19:42.544Z,-2.17
2022-12-17T19:22:44.721Z,-2.09
2022-12-17T19:25:47.106Z,-2.14
2022-12-17T19:28:51.327Z,-2.05
2022-12-17T19:31:53.883Z,-2.16
2022-12-17T19:34:56.044Z,-2.16
2022-12-17T19:37:58.411Z,-2.05
2022-12-17T19:41:10.042Z,-2.13
2022-12-17T19:44:14.676Z,-2.08
2022-12-17T19:47:16.947Z,-2.28
2022-12-17T19:50:19.349Z,-2.23
2022-12-17T19:53:23.126Z,-2.35
2022-12-17T19:56:27.107Z,-2.32
2022-12-17T19:59:29.352Z,-2.41
2022-12-17T20:02:33.169Z,-2.49
2022-12-17T20:05:35.773Z,-2.56
2022-12-17T20:08:38.277Z,-2.49
2022-12-17T20:11:41.272Z,-2.42
2022-12-17T20:14:43.352Z,-2.25
2022-12-17T20:17:45.764Z,-2.23
2022-12-17T20:20:47.895Z,-2.20
2022-12-17T20:23:50.429Z,-2.12
2022-12-17T20:26:54.027Z,-2.09
2022-12-17T20:29:56.459Z,-2.15
2022-12-17T20:32:58.536Z,-2.16
2022-12-17T20:36:05.082Z,-2.17
2022-12-17T20:39:08.557Z,-2.24
2022-12-17T20:42:11.128Z,-2.16
2022-12-17T20:45:13.313Z,-2.19
2022-12-17T20:48:15.764Z,-2.25
2022-12-17T20:51:21.276Z,-2.33
2022-12-17T20:54:23.818Z,-2.23
2022-12-17T20:57:25.928Z,-2.25
2022-12-17T21:00:28.405Z,-2.21
2022-12-17T21:03:32.377Z,-2.21
2022-12-17T21:06:40.996Z,-2.24
2022-12-17T21:09:43.101Z,-2.27
2022-12-17T21:13:04.567Z,-2.28
2022-12-17T21:16:11.544Z,-2.23
2022-12-17T21:19:17.235Z,-2.24
2022-12-17T21:22:19.547Z,-2.23
2022-12-17T21:25:21.993Z,-2.25
2022-12-17T21:28:24.136Z,-2.25
2022-12-17T21:31:48.186Z,-2.27
2022-12-17T21:34:50.370Z,-2.25
2022-12-17T21:37:52.792Z,-2.24
2022-12-17T21:40:55.409Z,-2.20
2022-12-17T21:44:00.513Z,-2.16
2022-12-17T21:47:02.953Z,-2.22
2022-12-17T21:50:05.726Z,-2.24
2022-12-17T21:53:09.079Z,-2.21
2022-12-17T21:56:17.233Z,-2.28
2022-12-17T21:59:19.628Z,-2.24
2022-12-17T22:02:22.229Z,-2.26
2022-12-17T22:05:24.876Z,-2.24
2022-12-17T22:08:27.036Z,-2.25
2022-12-17T22:11:29.673Z,-2.35
2022-12-17T22:14:32.024Z,-2.31
2022-12-17T22:17:34.432Z,-2.31
2022-12-17T22:20:36.709Z,-2.29
2022-12-17T22:23:42.092Z,-2.38
2022-12-17T22:26:44.904Z,-2.39
2022-12-17T22:30:06.042Z,-2.48
2022-12-17T22:33:26.342Z,-2.54
2022-12-17T22:39:59.391Z,-2.47
2022-12-17T22:43:00.337Z,-2.55
2022-12-17T22:44:42.779Z,-2.74
2022-12-17T22:46:54.596Z,-2.76
2022-12-17T22:49:57.047Z,-2.93
2022-12-17T22:52:59.876Z,-2.97
2022-12-17T22:56:14.689Z,-2.83
2022-12-17T22:59:23.468Z,-2.72
2022-12-17T23:02:25.935Z,-2.72
2022-12-17T23:05:29.029Z,-2.74
2022-12-17T23:08:31.403Z,-2.70
2022-12-17T23:11:33.568Z,-2.71
2022-12-17T23:14:35.919Z,-2.73
2022-12-17T23:17:38.088Z,-2.62
2022-12-17T23:20:40.572Z,-2.64
2022-12-17T23:23:43.556Z,-2.63
2022-12-17T23:26:46.018Z,-2.69
2022-12-17T23:29:48.286Z,-2.67
2022-12-17T23:32:50.837Z,-2.67
2022-12-17T23:36:05.799Z,-2.69
2022-12-17T23:39:08.512Z,-2.64
2022-12-17T23:42:10.670Z,-2.66
2022-12-17T23:45:13.456Z,-2.65
2022-12-17T23:48:15.587Z,-2.63
2022-12-17T23:51:19.874Z,-2.76
2022-12-17T23:54:22.057Z,-2.71
2022-12-17T23:57:24.437Z,-2.76
